sensor_id;sensor_type;location;lat;lon;timestamp;P1;durP1;ratioP1;P2;durP2;ratioP2
9260;SDS011;4667;42.726;23.252;2024-01-30T08:19:09;5.07;;;4.03;;
9260;SDS011;4667;42.726;23.252;2024-01-30T08:21:36;4.47;;;4.07;;
9260;SDS011;4667;42.726;23.252;2024-01-30T08:24:07;4.53;;;3.77;;
9260;SDS011;4667;42.726;23.252;2024-01-30T08:26:34;5.27;;;4.50;;
9260;SDS011;4667;42.726;23.252;2024-01-30T08:29:03;4.83;;;4.33;;
9260;SDS011;4667;42.726;23.252;2024-01-30T08:31:30;6.67;;;5.07;;
9260;SDS011;4667;42.726;23.252;2024-01-30T08:33:57;4.57;;;4.13;;
9260;SDS011;4667;42.726;23.252;2024-01-30T08:36:27;5.93;;;3.87;;
9260;SDS011;4667;42.726;23.252;2024-01-30T08:38:55;7.20;;;4.40;;
9260;SDS011;4667;42.726;23.252;2024-01-30T08:41:21;4.70;;;3.40;;
9260;SDS011;4667;42.726;23.252;2024-01-30T08:43:48;7.10;;;4.33;;
9260;SDS011;4667;42.726;23.252;2024-01-30T08:46:17;5.23;;;3.67;;
9260;SDS011;4667;42.726;23.252;2024-01-30T08:48:46;4.03;;;3.63;;
9260;SDS011;4667;42.726;23.252;2024-01-30T09:28:29;7.13;;;5.30;;
9260;SDS011;4667;42.726;23.252;2024-01-30T09:30:56;7.30;;;4.33;;
9260;SDS011;4667;42.726;23.252;2024-01-30T09:33:23;4.20;;;3.80;;
9260;SDS011;4667;42.726;23.252;2024-01-30T09:35:50;5.57;;;3.67;;
9260;SDS011;4667;42.726;23.252;2024-01-30T09:38:17;7.60;;;3.80;;
9260;SDS011;4667;42.726;23.252;2024-01-30T09:40:44;5.73;;;4.20;;
9260;SDS011;4667;42.726;23.252;2024-01-30T09:43:15;4.17;;;3.77;;
9260;SDS011;4667;42.726;23.252;2024-01-30T09:45:49;6.37;;;3.40;;
9260;SDS011;4667;42.726;23.252;2024-01-30T09:48:17;5.03;;;4.00;;
9260;SDS011;4667;42.726;23.252;2024-01-30T09:50:44;11.03;;;3.33;;
9260;SDS011;4667;42.726;23.252;2024-01-30T09:53:11;4.07;;;3.00;;
9260;SDS011;4667;42.726;23.252;2024-01-30T09:55:42;4.67;;;3.50;;
9260;SDS011;4667;42.726;23.252;2024-01-30T09:58:09;5.90;;;3.83;;
9260;SDS011;4667;42.726;23.252;2024-01-30T10:00:38;4.83;;;3.73;;
9260;SDS011;4667;42.726;23.252;2024-01-30T10:03:06;4.50;;;3.80;;
9260;SDS011;4667;42.726;23.252;2024-01-30T10:05:33;3.57;;;3.13;;
9260;SDS011;4667;42.726;23.252;2024-01-30T10:08:05;4.10;;;3.17;;
9260;SDS011;4667;42.726;23.252;2024-01-30T10:10:33;4.40;;;3.73;;
9260;SDS011;4667;42.726;23.252;2024-01-30T10:13:00;6.27;;;3.20;;
9260;SDS011;4667;42.726;23.252;2024-01-30T10:15:27;4.40;;;3.50;;
9260;SDS011;4667;42.726;23.252;2024-01-30T10:17:54;4.00;;;3.47;;
9260;SDS011;4667;42.726;23.252;2024-01-30T10:20:23;6.93;;;3.50;;
9260;SDS011;4667;42.726;23.252;2024-01-30T10:22:51;3.93;;;3.43;;
9260;SDS011;4667;42.726;23.252;2024-01-30T10:25:18;5.23;;;3.87;;
9260;SDS011;4667;42.726;23.252;2024-01-30T10:27:45;4.13;;;3.57;;
9260;SDS011;4667;42.726;23.252;2024-01-30T10:30:12;4.83;;;3.80;;
9260;SDS011;4667;42.726;23.252;2024-01-30T10:32:39;5.03;;;3.60;;
9260;SDS011;4667;42.726;23.252;2024-01-30T10:35:06;6.17;;;3.77;;
9260;SDS011;4667;42.726;23.252;2024-01-30T10:37:35;3.77;;;3.10;;
9260;SDS011;4667;42.726;23.252;2024-01-30T10:40:03;3.30;;;2.73;;
9260;SDS011;4667;42.726;23.252;2024-01-30T10:43:03;3.97;;;3.27;;
9260;SDS011;4667;42.726;23.252;2024-01-30T10:45:31;3.57;;;3.27;;
9260;SDS011;4667;42.726;23.252;2024-01-30T10:47:59;3.23;;;2.67;;
9260;SDS011;4667;42.726;23.252;2024-01-30T10:50:28;4.30;;;3.33;;
9260;SDS011;4667;42.726;23.252;2024-01-30T10:52:59;3.03;;;2.73;;
9260;SDS011;4667;42.726;23.252;2024-01-30T10:55:27;4.43;;;3.20;;
9260;SDS011;4667;42.726;23.252;2024-01-30T10:57:56;3.07;;;2.77;;
9260;SDS011;4667;42.726;23.252;2024-01-30T11:00:25;3.73;;;3.37;;
9260;SDS011;4667;42.726;23.252;2024-01-30T11:02:52;3.90;;;3.20;;
9260;SDS011;4667;42.726;23.252;2024-01-30T11:05:23;3.83;;;3.33;;
9260;SDS011;4667;42.726;23.252;2024-01-30T11:07:52;6.00;;;3.60;;
9260;SDS011;4667;42.726;23.252;2024-01-30T11:10:18;15.57;;;4.10;;
9260;SDS011;4667;42.726;23.252;2024-01-30T11:12:48;3.30;;;3.00;;
9260;SDS011;4667;42.726;23.252;2024-01-30T11:15:18;5.03;;;3.20;;
9260;SDS011;4667;42.726;23.252;2024-01-30T11:17:51;5.27;;;3.50;;
9260;SDS011;4667;42.726;23.252;2024-01-30T11:20:19;4.23;;;3.67;;
9260;SDS011;4667;42.726;23.252;2024-01-30T11:22:53;9.67;;;6.27;;
9260;SDS011;4667;42.726;23.252;2024-01-30T11:25:21;9.83;;;5.63;;
9260;SDS011;4667;42.726;23.252;2024-01-30T11:27:52;14.60;;;8.83;;
9260;SDS011;4667;42.726;23.252;2024-01-30T11:30:21;13.50;;;8.70;;
9260;SDS011;4667;42.726;23.252;2024-01-30T11:32:59;18.60;;;9.80;;
9260;SDS011;4667;42.726;23.252;2024-01-30T11:35:27;11.33;;;6.10;;
9260;SDS011;4667;42.726;23.252;2024-01-30T11:37:56;4.47;;;4.03;;
9260;SDS011;4667;42.726;23.252;2024-01-30T11:40:27;5.07;;;4.03;;
9260;SDS011;4667;42.726;23.252;2024-01-30T11:42:55;3.77;;;3.47;;
9260;SDS011;4667;42.726;23.252;2024-01-30T11:45:26;4.07;;;3.67;;
9260;SDS011;4667;42.726;23.252;2024-01-30T11:47:55;4.17;;;3.70;;
9260;SDS011;4667;42.726;23.252;2024-01-30T11:50:24;3.77;;;3.40;;
9260;SDS011;4667;42.726;23.252;2024-01-30T11:52:51;6.60;;;4.30;;
9260;SDS011;4667;42.726;23.252;2024-01-30T11:55:18;5.37;;;3.83;;
9260;SDS011;4667;42.726;23.252;2024-01-30T11:57:46;7.20;;;4.50;;
9260;SDS011;4667;42.726;23.252;2024-01-30T12:00:16;9.00;;;6.07;;
9260;SDS011;4667;42.726;23.252;2024-01-30T12:02:44;4.70;;;4.17;;
9260;SDS011;4667;42.726;23.252;2024-01-30T12:05:18;9.07;;;4.33;;
9260;SDS011;4667;42.726;23.252;2024-01-30T12:07:48;5.00;;;3.80;;
9260;SDS011;4667;42.726;23.252;2024-01-30T12:10:15;5.67;;;4.50;;
9260;SDS011;4667;42.726;23.252;2024-01-30T12:12:43;7.63;;;5.87;;
9260;SDS011;4667;42.726;23.252;2024-01-30T12:15:12;3.87;;;3.33;;
9260;SDS011;4667;42.726;23.252;2024-01-30T12:17:39;5.73;;;3.73;;
9260;SDS011;4667;42.726;23.252;2024-01-30T12:20:07;5.93;;;4.00;;
9260;SDS011;4667;42.726;23.252;2024-01-30T12:22:36;6.13;;;3.97;;
9260;SDS011;4667;42.726;23.252;2024-01-30T12:25:07;5.23;;;4.70;;
9260;SDS011;4667;42.726;23.252;2024-01-30T12:27:34;10.00;;;4.20;;
9260;SDS011;4667;42.726;23.252;2024-01-30T12:30:04;6.30;;;4.57;;
9260;SDS011;4667;42.726;23.252;2024-01-30T12:32:34;5.47;;;4.30;;
9260;SDS011;4667;42.726;23.252;2024-01-30T12:35:01;4.77;;;4.27;;
9260;SDS011;4667;42.726;23.252;2024-01-30T12:37:29;4.30;;;3.87;;
9260;SDS011;4667;42.726;23.252;2024-01-30T12:39:56;6.23;;;4.27;;
9260;SDS011;4667;42.726;23.252;2024-01-30T12:42:26;6.30;;;4.27;;
9260;SDS011;4667;42.726;23.252;2024-01-30T12:44:54;6.03;;;4.50;;
9260;SDS011;4667;42.726;23.252;2024-01-30T12:47:23;5.43;;;4.17;;
9260;SDS011;4667;42.726;23.252;2024-01-30T12:49:50;4.63;;;3.50;;
9260;SDS011;4667;42.726;23.252;2024-01-30T12:52:19;4.53;;;4.10;;
9260;SDS011;4667;42.726;23.252;2024-01-30T12:54:48;5.13;;;4.50;;
9260;SDS011;4667;42.726;23.252;2024-01-30T12:57:15;6.20;;;4.70;;
9260;SDS011;4667;42.726;23.252;2024-01-30T12:59:44;4.73;;;4.30;;
9260;SDS011;4667;42.726;23.252;2024-01-30T13:02:12;5.87;;;4.60;;
9260;SDS011;4667;42.726;23.252;2024-01-30T13:04:39;5.50;;;4.60;;
9260;SDS011;4667;42.726;23.252;2024-01-30T13:07:07;4.90;;;4.20;;
9260;SDS011;4667;42.726;23.252;2024-01-30T13:09:36;4.63;;;3.97;;
9260;SDS011;4667;42.726;23.252;2024-01-30T13:12:03;6.93;;;4.30;;
9260;SDS011;4667;42.726;23.252;2024-01-30T13:14:30;8.90;;;4.20;;
9260;SDS011;4667;42.726;23.252;2024-01-30T13:16:58;4.37;;;3.50;;
9260;SDS011;4667;42.726;23.252;2024-01-30T13:19:25;4.20;;;3.80;;
9260;SDS011;4667;42.726;23.252;2024-01-30T13:21:53;5.13;;;3.93;;
9260;SDS011;4667;42.726;23.252;2024-01-30T13:24:19;5.90;;;3.90;;
9260;SDS011;4667;42.726;23.252;2024-01-30T13:26:46;7.50;;;5.13;;
9260;SDS011;4667;42.726;23.252;2024-01-30T13:29:16;6.00;;;5.00;;
9260;SDS011;4667;42.726;23.252;2024-01-30T13:31:43;4.53;;;4.10;;
9260;SDS011;4667;42.726;23.252;2024-01-30T13:34:13;5.73;;;4.70;;
9260;SDS011;4667;42.726;23.252;2024-01-30T13:36:40;7.43;;;4.43;;
9260;SDS011;4667;42.726;23.252;2024-01-30T13:39:08;6.27;;;4.97;;
9260;SDS011;4667;42.726;23.252;2024-01-30T13:41:35;8.37;;;4.47;;
9260;SDS011;4667;42.726;23.252;2024-01-30T13:44:02;5.33;;;4.53;;
9260;SDS011;4667;42.726;23.252;2024-01-30T13:46:29;6.57;;;4.40;;
9260;SDS011;4667;42.726;23.252;2024-01-30T13:48:57;6.93;;;5.10;;
9260;SDS011;4667;42.726;23.252;2024-01-30T13:51:25;5.17;;;3.80;;
9260;SDS011;4667;42.726;23.252;2024-01-30T13:53:52;7.13;;;3.80;;
9260;SDS011;4667;42.726;23.252;2024-01-30T13:56:19;9.20;;;5.00;;
9260;SDS011;4667;42.726;23.252;2024-01-30T13:58:46;6.37;;;4.70;;
9260;SDS011;4667;42.726;23.252;2024-01-30T14:01:14;11.90;;;5.97;;
9260;SDS011;4667;42.726;23.252;2024-01-30T14:03:46;7.97;;;5.70;;
9260;SDS011;4667;42.726;23.252;2024-01-30T14:06:14;7.43;;;5.03;;
9260;SDS011;4667;42.726;23.252;2024-01-30T14:08:42;7.97;;;5.73;;
9260;SDS011;4667;42.726;23.252;2024-01-30T14:11:09;8.63;;;5.93;;
9260;SDS011;4667;42.726;23.252;2024-01-30T14:13:36;6.50;;;5.33;;
9260;SDS011;4667;42.726;23.252;2024-01-30T14:16:03;5.87;;;5.03;;
9260;SDS011;4667;42.726;23.252;2024-01-30T14:18:31;9.07;;;5.63;;
9260;SDS011;4667;42.726;23.252;2024-01-30T14:20:58;6.43;;;5.27;;
9260;SDS011;4667;42.726;23.252;2024-01-30T14:23:25;5.80;;;4.70;;
9260;SDS011;4667;42.726;23.252;2024-01-30T14:25:53;7.87;;;5.17;;
9260;SDS011;4667;42.726;23.252;2024-01-30T14:28:20;7.43;;;5.60;;
9260;SDS011;4667;42.726;23.252;2024-01-30T14:30:47;7.43;;;5.70;;
9260;SDS011;4667;42.726;23.252;2024-01-30T14:33:14;10.10;;;5.97;;
9260;SDS011;4667;42.726;23.252;2024-01-30T14:35:41;7.88;;;6.20;;
9260;SDS011;4667;42.726;23.252;2024-01-30T14:38:08;6.47;;;5.20;;
9260;SDS011;4667;42.726;23.252;2024-01-30T14:40:35;8.80;;;6.30;;
9260;SDS011;4667;42.726;23.252;2024-01-30T14:43:03;8.57;;;6.13;;
9260;SDS011;4667;42.726;23.252;2024-01-30T14:45:30;8.27;;;6.27;;
9260;SDS011;4667;42.726;23.252;2024-01-30T14:47:58;10.13;;;6.37;;
9260;SDS011;4667;42.726;23.252;2024-01-30T14:50:25;7.90;;;6.17;;
9260;SDS011;4667;42.726;23.252;2024-01-30T14:52:52;7.00;;;6.03;;
9260;SDS011;4667;42.726;23.252;2024-01-30T14:55:19;8.83;;;6.07;;
9260;SDS011;4667;42.726;23.252;2024-01-30T14:57:45;10.07;;;7.23;;
9260;SDS011;4667;42.726;23.252;2024-01-30T15:00:16;7.93;;;5.83;;
9260;SDS011;4667;42.726;23.252;2024-01-30T15:02:43;7.87;;;6.03;;
9260;SDS011;4667;42.726;23.252;2024-01-30T15:05:11;10.93;;;7.60;;
9260;SDS011;4667;42.726;23.252;2024-01-30T15:07:39;13.33;;;7.47;;
9260;SDS011;4667;42.726;23.252;2024-01-30T15:10:07;9.53;;;6.83;;
9260;SDS011;4667;42.726;23.252;2024-01-30T15:12:34;11.53;;;8.00;;
9260;SDS011;4667;42.726;23.252;2024-01-30T15:15:02;12.60;;;6.97;;
9260;SDS011;4667;42.726;23.252;2024-01-30T15:17:30;10.43;;;6.93;;
9260;SDS011;4667;42.726;23.252;2024-01-30T15:19:57;14.80;;;7.80;;
9260;SDS011;4667;42.726;23.252;2024-01-30T15:22:25;10.83;;;7.07;;
9260;SDS011;4667;42.726;23.252;2024-01-30T15:24:52;13.27;;;8.50;;
9260;SDS011;4667;42.726;23.252;2024-01-30T15:27:19;14.80;;;7.97;;
9260;SDS011;4667;42.726;23.252;2024-01-30T15:29:46;15.83;;;10.30;;
9260;SDS011;4667;42.726;23.252;2024-01-30T15:32:14;19.00;;;10.13;;
9260;SDS011;4667;42.726;23.252;2024-01-30T15:34:42;15.70;;;8.83;;
9260;SDS011;4667;42.726;23.252;2024-01-30T15:37:09;14.07;;;9.13;;
9260;SDS011;4667;42.726;23.252;2024-01-30T15:39:36;16.87;;;9.27;;
9260;SDS011;4667;42.726;23.252;2024-01-30T15:42:03;13.47;;;9.27;;
9260;SDS011;4667;42.726;23.252;2024-01-30T15:44:30;12.57;;;8.73;;
9260;SDS011;4667;42.726;23.252;2024-01-30T15:46:57;16.90;;;9.60;;
9260;SDS011;4667;42.726;23.252;2024-01-30T15:49:27;14.73;;;8.70;;
9260;SDS011;4667;42.726;23.252;2024-01-30T15:51:55;13.47;;;8.47;;
9260;SDS011;4667;42.726;23.252;2024-01-30T15:54:22;14.57;;;8.10;;
9260;SDS011;4667;42.726;23.252;2024-01-30T15:56:49;8.57;;;6.83;;
9260;SDS011;4667;42.726;23.252;2024-01-30T15:59:16;8.07;;;6.60;;
9260;SDS011;4667;42.726;23.252;2024-01-30T16:01:43;7.73;;;6.23;;
9260;SDS011;4667;42.726;23.252;2024-01-30T16:04:15;9.57;;;7.23;;
9260;SDS011;4667;42.726;23.252;2024-01-30T16:06:42;9.93;;;7.13;;
9260;SDS011;4667;42.726;23.252;2024-01-30T16:09:12;11.57;;;7.50;;
9260;SDS011;4667;42.726;23.252;2024-01-30T16:11:40;15.47;;;7.10;;
9260;SDS011;4667;42.726;23.252;2024-01-30T16:14:07;10.23;;;7.30;;
9260;SDS011;4667;42.726;23.252;2024-01-30T16:16:34;14.67;;;7.60;;
9260;SDS011;4667;42.726;23.252;2024-01-30T16:19:01;15.10;;;8.30;;
9260;SDS011;4667;42.726;23.252;2024-01-30T16:21:29;15.17;;;9.30;;
9260;SDS011;4667;42.726;23.252;2024-01-30T16:23:55;12.33;;;8.40;;
9260;SDS011;4667;42.726;23.252;2024-01-30T16:26:24;13.93;;;8.53;;
9260;SDS011;4667;42.726;23.252;2024-01-30T16:28:51;15.17;;;10.20;;
9260;SDS011;4667;42.726;23.252;2024-01-30T16:31:18;19.43;;;11.20;;
9260;SDS011;4667;42.726;23.252;2024-01-30T16:33:46;19.67;;;11.90;;
9260;SDS011;4667;42.726;23.252;2024-01-30T16:36:14;20.87;;;10.87;;
9260;SDS011;4667;42.726;23.252;2024-01-30T16:38:41;14.63;;;9.97;;
9260;SDS011;4667;42.726;23.252;2024-01-30T16:41:08;13.57;;;9.87;;
9260;SDS011;4667;42.726;23.252;2024-01-30T16:43:38;16.07;;;10.97;;
9260;SDS011;4667;42.726;23.252;2024-01-30T16:46:05;13.27;;;9.83;;
9260;SDS011;4667;42.726;23.252;2024-01-30T16:48:32;16.13;;;9.50;;
9260;SDS011;4667;42.726;23.252;2024-01-30T16:50:59;13.70;;;9.07;;
9260;SDS011;4667;42.726;23.252;2024-01-30T16:53:26;13.10;;;8.93;;
9260;SDS011;4667;42.726;23.252;2024-01-30T16:55:54;10.60;;;7.87;;
9260;SDS011;4667;42.726;23.252;2024-01-30T16:58:20;13.37;;;7.30;;
9260;SDS011;4667;42.726;23.252;2024-01-30T17:03:55;10.67;;;7.43;;
9260;SDS011;4667;42.726;23.252;2024-01-30T17:06:22;12.33;;;7.27;;
9260;SDS011;4667;42.726;23.252;2024-01-30T17:08:49;10.93;;;8.10;;
9260;SDS011;4667;42.726;23.252;2024-01-30T17:11:16;15.57;;;8.00;;
9260;SDS011;4667;42.726;23.252;2024-01-30T17:13:43;13.03;;;7.97;;
9260;SDS011;4667;42.726;23.252;2024-01-30T17:16:10;11.70;;;8.00;;
9260;SDS011;4667;42.726;23.252;2024-01-30T17:18:38;11.57;;;8.27;;
9260;SDS011;4667;42.726;23.252;2024-01-30T17:21:05;10.63;;;7.20;;
9260;SDS011;4667;42.726;23.252;2024-01-30T17:23:34;10.63;;;7.13;;
9260;SDS011;4667;42.726;23.252;2024-01-30T17:26:02;10.53;;;7.20;;
9260;SDS011;4667;42.726;23.252;2024-01-30T17:28:29;12.10;;;8.17;;
9260;SDS011;4667;42.726;23.252;2024-01-30T17:30:57;12.63;;;8.13;;
9260;SDS011;4667;42.726;23.252;2024-01-30T17:33:24;14.33;;;7.17;;
9260;SDS011;4667;42.726;23.252;2024-01-30T17:35:52;9.83;;;7.10;;
9260;SDS011;4667;42.726;23.252;2024-01-30T17:38:20;11.87;;;6.50;;
9260;SDS011;4667;42.726;23.252;2024-01-30T17:40:47;22.33;;;12.80;;
9260;SDS011;4667;42.726;23.252;2024-01-30T17:43:16;18.40;;;13.13;;
9260;SDS011;4667;42.726;23.252;2024-01-30T17:45:43;10.70;;;7.17;;
9260;SDS011;4667;42.726;23.252;2024-01-30T17:48:10;12.23;;;7.43;;
9260;SDS011;4667;42.726;23.252;2024-01-30T17:50:38;9.60;;;7.00;;
9260;SDS011;4667;42.726;23.252;2024-01-30T17:53:07;10.23;;;6.73;;
9260;SDS011;4667;42.726;23.252;2024-01-30T17:55:34;9.13;;;6.97;;
9260;SDS011;4667;42.726;23.252;2024-01-30T17:58:01;9.50;;;6.70;;
9260;SDS011;4667;42.726;23.252;2024-01-30T18:00:30;9.87;;;6.70;;
9260;SDS011;4667;42.726;23.252;2024-01-30T18:02:57;8.50;;;6.03;;
9260;SDS011;4667;42.726;23.252;2024-01-30T18:05:26;11.27;;;7.63;;
9260;SDS011;4667;42.726;23.252;2024-01-30T18:07:54;10.17;;;7.17;;
9260;SDS011;4667;42.726;23.252;2024-01-30T18:10:23;9.33;;;7.30;;
9260;SDS011;4667;42.726;23.252;2024-01-30T18:12:50;8.87;;;7.77;;
9260;SDS011;4667;42.726;23.252;2024-01-30T18:15:19;10.37;;;7.73;;
9260;SDS011;4667;42.726;23.252;2024-01-30T18:17:46;11.70;;;7.83;;
9260;SDS011;4667;42.726;23.252;2024-01-30T18:20:15;13.63;;;8.40;;
9260;SDS011;4667;42.726;23.252;2024-01-30T18:22:42;15.47;;;8.47;;
9260;SDS011;4667;42.726;23.252;2024-01-30T18:25:11;9.73;;;7.40;;
9260;SDS011;4667;42.726;23.252;2024-01-30T18:27:54;10.57;;;7.43;;
9260;SDS011;4667;42.726;23.252;2024-01-30T18:30:23;12.63;;;8.20;;
9260;SDS011;4667;42.726;23.252;2024-01-30T18:32:50;11.37;;;8.40;;
9260;SDS011;4667;42.726;23.252;2024-01-30T18:35:18;13.77;;;7.77;;
9260;SDS011;4667;42.726;23.252;2024-01-30T18:37:45;15.20;;;8.13;;
9260;SDS011;4667;42.726;23.252;2024-01-30T18:40:13;11.03;;;8.67;;
9260;SDS011;4667;42.726;23.252;2024-01-30T18:42:42;13.27;;;9.03;;
9260;SDS011;4667;42.726;23.252;2024-01-30T18:45:11;12.37;;;8.60;;
9260;SDS011;4667;42.726;23.252;2024-01-30T18:47:38;10.70;;;8.23;;
9260;SDS011;4667;42.726;23.252;2024-01-30T18:50:06;13.20;;;8.60;;
9260;SDS011;4667;42.726;23.252;2024-01-30T18:52:34;15.70;;;9.43;;
9260;SDS011;4667;42.726;23.252;2024-01-30T18:55:01;15.57;;;9.73;;
9260;SDS011;4667;42.726;23.252;2024-01-30T18:57:28;21.13;;;11.80;;
9260;SDS011;4667;42.726;23.252;2024-01-30T18:59:55;33.33;;;18.70;;
9260;SDS011;4667;42.726;23.252;2024-01-30T19:02:24;21.63;;;13.10;;
9260;SDS011;4667;42.726;23.252;2024-01-30T19:04:51;19.90;;;13.80;;
9260;SDS011;4667;42.726;23.252;2024-01-30T19:07:18;20.43;;;12.80;;
9260;SDS011;4667;42.726;23.252;2024-01-30T19:09:47;24.63;;;13.93;;
9260;SDS011;4667;42.726;23.252;2024-01-30T19:12:15;25.30;;;14.40;;
9260;SDS011;4667;42.726;23.252;2024-01-30T19:14:42;33.17;;;15.70;;
9260;SDS011;4667;42.726;23.252;2024-01-30T19:17:09;29.43;;;16.60;;
9260;SDS011;4667;42.726;23.252;2024-01-30T19:19:38;32.00;;;18.57;;
9260;SDS011;4667;42.726;23.252;2024-01-30T19:22:06;27.97;;;17.37;;
9260;SDS011;4667;42.726;23.252;2024-01-30T19:24:34;26.10;;;16.93;;
9260;SDS011;4667;42.726;23.252;2024-01-30T19:27:01;27.20;;;16.57;;
9260;SDS011;4667;42.726;23.252;2024-01-30T19:29:28;32.63;;;17.67;;
9260;SDS011;4667;42.726;23.252;2024-01-30T19:31:56;26.67;;;17.30;;
9260;SDS011;4667;42.726;23.252;2024-01-30T19:34:23;25.60;;;16.90;;
9260;SDS011;4667;42.726;23.252;2024-01-30T19:36:51;27.30;;;16.83;;
9260;SDS011;4667;42.726;23.252;2024-01-30T19:39:19;27.90;;;16.53;;
9260;SDS011;4667;42.726;23.252;2024-01-30T19:41:46;30.33;;;17.47;;
9260;SDS011;4667;42.726;23.252;2024-01-30T19:44:14;28.27;;;16.53;;
9260;SDS011;4667;42.726;23.252;2024-01-30T19:46:41;29.60;;;18.10;;
9260;SDS011;4667;42.726;23.252;2024-01-30T19:49:09;29.00;;;17.00;;
9260;SDS011;4667;42.726;23.252;2024-01-30T19:51:36;34.00;;;17.60;;
9260;SDS011;4667;42.726;23.252;2024-01-30T19:54:05;26.63;;;15.50;;
9260;SDS011;4667;42.726;23.252;2024-01-30T19:56:36;33.70;;;17.20;;
9260;SDS011;4667;42.726;23.252;2024-01-30T19:59:03;22.70;;;14.73;;
9260;SDS011;4667;42.726;23.252;2024-01-30T20:01:31;24.23;;;15.60;;
9260;SDS011;4667;42.726;23.252;2024-01-30T20:03:59;28.77;;;15.97;;
9260;SDS011;4667;42.726;23.252;2024-01-30T20:06:26;26.90;;;14.57;;
9260;SDS011;4667;42.726;23.252;2024-01-30T20:08:54;23.70;;;15.60;;
9260;SDS011;4667;42.726;23.252;2024-01-30T20:11:22;26.70;;;16.27;;
9260;SDS011;4667;42.726;23.252;2024-01-30T20:13:50;25.53;;;15.30;;
9260;SDS011;4667;42.726;23.252;2024-01-30T20:16:17;24.57;;;15.13;;
9260;SDS011;4667;42.726;23.252;2024-01-30T20:18:44;27.53;;;15.50;;
9260;SDS011;4667;42.726;23.252;2024-01-30T20:21:11;26.80;;;16.47;;
9260;SDS011;4667;42.726;23.252;2024-01-30T20:23:39;26.40;;;17.53;;
9260;SDS011;4667;42.726;23.252;2024-01-30T20:26:06;26.10;;;15.37;;
9260;SDS011;4667;42.726;23.252;2024-01-30T20:28:35;24.83;;;16.27;;
9260;SDS011;4667;42.726;23.252;2024-01-30T20:31:02;31.23;;;18.20;;
9260;SDS011;4667;42.726;23.252;2024-01-30T20:33:29;31.37;;;18.57;;
9260;SDS011;4667;42.726;23.252;2024-01-30T20:35:58;31.03;;;19.10;;
9260;SDS011;4667;42.726;23.252;2024-01-30T20:38:26;35.73;;;19.43;;
9260;SDS011;4667;42.726;23.252;2024-01-30T20:40:53;35.37;;;20.57;;
9260;SDS011;4667;42.726;23.252;2024-01-30T20:43:20;29.00;;;18.37;;
9260;SDS011;4667;42.726;23.252;2024-01-30T20:45:48;33.80;;;20.07;;
